sensor_id;sensor_type;location;lat;lon;timestamp;temperature;humidity
5059;DHT22;2548;52.050;11.036;2023-07-24T00:02:06;19.80;99.90
5059;DHT22;2548;52.050;11.036;2023-07-24T00:04:34;19.70;99.90
5059;DHT22;2548;52.050;11.036;2023-07-24T00:07:03;19.70;99.90
5059;DHT22;2548;52.050;11.036;2023-07-24T00:09:30;19.70;99.90
5059;DHT22;2548;52.050;11.036;2023-07-24T00:11:58;19.70;99.90
5059;DHT22;2548;52.050;11.036;2023-07-24T00:14:25;19.80;99.90
5059;DHT22;2548;52.050;11.036;2023-07-24T00:16:53;19.80;99.90
5059;DHT22;2548;52.050;11.036;2023-07-24T00:19:20;19.80;99.90
5059;DHT22;2548;52.050;11.036;2023-07-24T00:21:48;19.80;99.90
5059;DHT22;2548;52.050;11.036;2023-07-24T00:24:16;19.80;99.90
5059;DHT22;2548;52.050;11.036;2023-07-24T00:26:44;19.90;99.90
5059;DHT22;2548;52.050;11.036;2023-07-24T00:29:11;19.90;99.90
5059;DHT22;2548;52.050;11.036;2023-07-24T00:31:39;19.90;99.90
5059;DHT22;2548;52.050;11.036;2023-07-24T00:34:06;19.90;99.90
5059;DHT22;2548;52.050;11.036;2023-07-24T00:36:33;19.90;99.90
5059;DHT22;2548;52.050;11.036;2023-07-24T00:39:01;19.90;99.90
5059;DHT22;2548;52.050;11.036;2023-07-24T00:41:32;19.90;99.90
5059;DHT22;2548;52.050;11.036;2023-07-24T00:43:59;19.90;99.90
5059;DHT22;2548;52.050;11.036;2023-07-24T00:46:28;19.90;99.90
5059;DHT22;2548;52.050;11.036;2023-07-24T00:48:58;19.90;99.90
5059;DHT22;2548;52.050;11.036;2023-07-24T00:51:27;19.90;99.90
5059;DHT22;2548;52.050;11.036;2023-07-24T00:53:55;19.80;99.90
5059;DHT22;2548;52.050;11.036;2023-07-24T00:56:23;19.80;99.90
5059;DHT22;2548;52.050;11.036;2023-07-24T00:58:52;19.90;99.90
5059;DHT22;2548;52.050;11.036;2023-07-24T01:01:22;19.90;99.90
5059;DHT22;2548;52.050;11.036;2023-07-24T01:03:51;19.90;99.90
5059;DHT22;2548;52.050;11.036;2023-07-24T01:06:19;20.00;99.90
5059;DHT22;2548;52.050;11.036;2023-07-24T01:08:46;20.00;99.90
5059;DHT22;2548;52.050;11.036;2023-07-24T01:11:18;20.00;99.90
5059;DHT22;2548;52.050;11.036;2023-07-24T01:13:58;20.00;99.90
5059;DHT22;2548;52.050;11.036;2023-07-24T01:16:30;20.00;99.90
5059;DHT22;2548;52.050;11.036;2023-07-24T01:19:00;20.00;99.90
5059;DHT22;2548;52.050;11.036;2023-07-24T01:21:36;20.10;99.90
5059;DHT22;2548;52.050;11.036;2023-07-24T01:24:19;20.00;99.90
5059;DHT22;2548;52.050;11.036;2023-07-24T01:26:51;20.10;99.90
5059;DHT22;2548;52.050;11.036;2023-07-24T01:29:18;20.00;99.90
5059;DHT22;2548;52.050;11.036;2023-07-24T01:31:46;20.00;99.90
5059;DHT22;2548;52.050;11.036;2023-07-24T01:34:13;20.00;99.90
5059;DHT22;2548;52.050;11.036;2023-07-24T01:36:41;20.00;99.90
5059;DHT22;2548;52.050;11.036;2023-07-24T01:39:09;19.90;99.90
5059;DHT22;2548;52.050;11.036;2023-07-24T01:41:37;19.90;99.90
5059;DHT22;2548;52.050;11.036;2023-07-24T01:44:06;19.90;99.90
5059;DHT22;2548;52.050;11.036;2023-07-24T01:46:34;19.90;99.90
5059;DHT22;2548;52.050;11.036;2023-07-24T01:49:01;19.90;99.90
5059;DHT22;2548;52.050;11.036;2023-07-24T01:51:29;19.90;99.90
5059;DHT22;2548;52.050;11.036;2023-07-24T01:53:56;19.90;99.90
5059;DHT22;2548;52.050;11.036;2023-07-24T01:56:24;19.90;99.90
5059;DHT22;2548;52.050;11.036;2023-07-24T01:58:51;19.90;99.90
5059;DHT22;2548;52.050;11.036;2023-07-24T02:01:20;19.90;99.90
5059;DHT22;2548;52.050;11.036;2023-07-24T02:03:47;19.90;99.90
5059;DHT22;2548;52.050;11.036;2023-07-24T02:06:15;19.90;99.90
5059;DHT22;2548;52.050;11.036;2023-07-24T02:08:42;19.90;99.90
5059;DHT22;2548;52.050;11.036;2023-07-24T02:11:15;19.90;99.90
5059;DHT22;2548;52.050;11.036;2023-07-24T02:13:44;19.90;99.90
5059;DHT22;2548;52.050;11.036;2023-07-24T02:16:12;19.90;99.90
5059;DHT22;2548;52.050;11.036;2023-07-24T02:18:42;19.90;99.90
5059;DHT22;2548;52.050;11.036;2023-07-24T02:21:10;19.90;99.90
5059;DHT22;2548;52.050;11.036;2023-07-24T02:23:37;19.90;99.90
5059;DHT22;2548;52.050;11.036;2023-07-24T02:26:05;19.90;99.90
5059;DHT22;2548;52.050;11.036;2023-07-24T02:28:34;19.90;99.90
5059;DHT22;2548;52.050;11.036;2023-07-24T02:31:01;19.90;99.90
5059;DHT22;2548;52.050;11.036;2023-07-24T02:33:29;19.80;99.90
5059;DHT22;2548;52.050;11.036;2023-07-24T02:35:58;19.80;99.90
5059;DHT22;2548;52.050;11.036;2023-07-24T02:38:25;19.80;99.90
5059;DHT22;2548;52.050;11.036;2023-07-24T02:40:52;19.70;99.90
5059;DHT22;2548;52.050;11.036;2023-07-24T02:43:20;19.70;99.90
5059;DHT22;2548;52.050;11.036;2023-07-24T02:45:47;19.70;99.90
5059;DHT22;2548;52.050;11.036;2023-07-24T02:48:15;19.70;99.90
5059;DHT22;2548;52.050;11.036;2023-07-24T02:50:43;19.70;99.90
5059;DHT22;2548;52.050;11.036;2023-07-24T02:53:12;19.60;99.90
5059;DHT22;2548;52.050;11.036;2023-07-24T02:55:42;19.60;99.90
5059;DHT22;2548;52.050;11.036;2023-07-24T02:58:10;19.60;99.90
5059;DHT22;2548;52.050;11.036;2023-07-24T03:00:38;19.60;99.90
5059;DHT22;2548;52.050;11.036;2023-07-24T03:03:05;19.60;99.90
5059;DHT22;2548;52.050;11.036;2023-07-24T03:05:34;19.60;99.90
5059;DHT22;2548;52.050;11.036;2023-07-24T03:08:01;19.60;99.90
5059;DHT22;2548;52.050;11.036;2023-07-24T03:10:31;19.60;99.90
5059;DHT22;2548;52.050;11.036;2023-07-24T03:12:59;19.60;99.90
5059;DHT22;2548;52.050;11.036;2023-07-24T03:15:26;19.60;99.90
5059;DHT22;2548;52.050;11.036;2023-07-24T03:17:54;19.60;99.90
5059;DHT22;2548;52.050;11.036;2023-07-24T03:20:21;19.60;99.90
5059;DHT22;2548;52.050;11.036;2023-07-24T03:22:49;19.60;99.90
5059;DHT22;2548;52.050;11.036;2023-07-24T03:25:17;19.60;99.90
5059;DHT22;2548;52.050;11.036;2023-07-24T03:27:45;19.50;99.90
5059;DHT22;2548;52.050;11.036;2023-07-24T03:30:13;19.50;99.90
5059;DHT22;2548;52.050;11.036;2023-07-24T03:32:40;19.50;99.90
5059;DHT22;2548;52.050;11.036;2023-07-24T03:35:08;19.50;99.90
5059;DHT22;2548;52.050;11.036;2023-07-24T03:37:35;19.50;99.90
5059;DHT22;2548;52.050;11.036;2023-07-24T03:40:04;19.50;99.90
5059;DHT22;2548;52.050;11.036;2023-07-24T03:42:32;19.50;99.90
5059;DHT22;2548;52.050;11.036;2023-07-24T03:45:01;19.50;99.90
5059;DHT22;2548;52.050;11.036;2023-07-24T03:47:29;19.50;99.90
5059;DHT22;2548;52.050;11.036;2023-07-24T03:49:56;19.40;99.90
5059;DHT22;2548;52.050;11.036;2023-07-24T03:52:24;19.50;99.90
5059;DHT22;2548;52.050;11.036;2023-07-24T03:54:51;19.40;99.90
5059;DHT22;2548;52.050;11.036;2023-07-24T03:57:19;19.40;99.90
5059;DHT22;2548;52.050;11.036;2023-07-24T03:59:46;19.40;99.90
5059;DHT22;2548;52.050;11.036;2023-07-24T04:02:15;19.40;99.90
5059;DHT22;2548;52.050;11.036;2023-07-24T04:04:43;19.40;99.90
5059;DHT22;2548;52.050;11.036;2023-07-24T04:07:10;19.50;99.90
5059;DHT22;2548;52.050;11.036;2023-07-24T04:09:37;19.50;99.90
5059;DHT22;2548;52.050;11.036;2023-07-24T04:12:05;19.50;99.90
5059;DHT22;2548;52.050;11.036;2023-07-24T04:14:32;19.50;99.90
5059;DHT22;2548;52.050;11.036;2023-07-24T04:17:00;19.50;99.90
5059;DHT22;2548;52.050;11.036;2023-07-24T04:19:29;19.50;99.90
5059;DHT22;2548;52.050;11.036;2023-07-24T04:21:56;19.50;99.90
5059;DHT22;2548;52.050;11.036;2023-07-24T04:24:24;19.50;99.90
5059;DHT22;2548;52.050;11.036;2023-07-24T04:26:51;19.50;99.90
5059;DHT22;2548;52.050;11.036;2023-07-24T04:29:19;19.50;99.90
5059;DHT22;2548;52.050;11.036;2023-07-24T04:31:49;19.40;99.90
5059;DHT22;2548;52.050;11.036;2023-07-24T04:34:17;19.50;99.90
5059;DHT22;2548;52.050;11.036;2023-07-24T04:36:46;19.50;99.90
5059;DHT22;2548;52.050;11.036;2023-07-24T04:39:13;19.50;99.90
5059;DHT22;2548;52.050;11.036;2023-07-24T04:41:41;19.50;99.90
5059;DHT22;2548;52.050;11.036;2023-07-24T04:44:08;19.40;99.90
5059;DHT22;2548;52.050;11.036;2023-07-24T04:46:35;19.40;99.90
5059;DHT22;2548;52.050;11.036;2023-07-24T04:49:03;19.40;99.90
5059;DHT22;2548;52.050;11.036;2023-07-24T04:51:30;19.30;99.90
5059;DHT22;2548;52.050;11.036;2023-07-24T04:53:59;19.30;99.90
5059;DHT22;2548;52.050;11.036;2023-07-24T04:56:26;19.20;99.90
5059;DHT22;2548;52.050;11.036;2023-07-24T04:58:54;19.20;99.90
5059;DHT22;2548;52.050;11.036;2023-07-24T05:01:21;19.20;99.90
5059;DHT22;2548;52.050;11.036;2023-07-24T05:03:48;19.20;99.90
5059;DHT22;2548;52.050;11.036;2023-07-24T05:06:16;19.20;99.90
5059;DHT22;2548;52.050;11.036;2023-07-24T05:08:43;19.20;99.90
5059;DHT22;2548;52.050;11.036;2023-07-24T05:11:12;19.20;99.90
5059;DHT22;2548;52.050;11.036;2023-07-24T05:13:39;19.20;99.90
5059;DHT22;2548;52.050;11.036;2023-07-24T05:16:07;19.30;99.90
5059;DHT22;2548;52.050;11.036;2023-07-24T05:18:34;19.30;99.90
5059;DHT22;2548;52.050;11.036;2023-07-24T05:21:02;19.30;99.90
5059;DHT22;2548;52.050;11.036;2023-07-24T05:23:29;19.30;99.90
5059;DHT22;2548;52.050;11.036;2023-07-24T05:25:57;19.40;99.90
5059;DHT22;2548;52.050;11.036;2023-07-24T05:28:26;19.50;99.90
5059;DHT22;2548;52.050;11.036;2023-07-24T05:30:54;19.60;99.90
5059;DHT22;2548;52.050;11.036;2023-07-24T05:33:22;19.60;99.90
5059;DHT22;2548;52.050;11.036;2023-07-24T05:35:49;19.60;99.90
5059;DHT22;2548;52.050;11.036;2023-07-24T05:38:16;19.70;99.90
5059;DHT22;2548;52.050;11.036;2023-07-24T05:40:44;19.80;99.90
5059;DHT22;2548;52.050;11.036;2023-07-24T05:43:11;19.90;99.90
5059;DHT22;2548;52.050;11.036;2023-07-24T05:45:40;20.20;99.90
5059;DHT22;2548;52.050;11.036;2023-07-24T05:48:07;20.30;99.90
5059;DHT22;2548;52.050;11.036;2023-07-24T05:50:35;20.50;99.90
5059;DHT22;2548;52.050;11.036;2023-07-24T05:53:02;20.60;99.90
5059;DHT22;2548;52.050;11.036;2023-07-24T05:55:30;20.70;99.90
5059;DHT22;2548;52.050;11.036;2023-07-24T05:57:57;20.80;99.90
5059;DHT22;2548;52.050;11.036;2023-07-24T06:00:24;20.90;99.90
5059;DHT22;2548;52.050;11.036;2023-07-24T06:02:54;20.90;99.90
5059;DHT22;2548;52.050;11.036;2023-07-24T06:05:21;20.90;99.90
5059;DHT22;2548;52.050;11.036;2023-07-24T06:07:49;20.90;99.90
5059;DHT22;2548;52.050;11.036;2023-07-24T06:10:16;21.00;99.90
5059;DHT22;2548;52.050;11.036;2023-07-24T06:12:44;21.00;99.90
5059;DHT22;2548;52.050;11.036;2023-07-24T06:15:11;21.10;99.90
5059;DHT22;2548;52.050;11.036;2023-07-24T06:17:38;21.10;99.90
5059;DHT22;2548;52.050;11.036;2023-07-24T06:20:08;21.20;99.90
5059;DHT22;2548;52.050;11.036;2023-07-24T06:22:35;21.30;99.90
5059;DHT22;2548;52.050;11.036;2023-07-24T06:25:03;21.30;99.90
5059;DHT22;2548;52.050;11.036;2023-07-24T06:27:31;21.30;99.90
5059;DHT22;2548;52.050;11.036;2023-07-24T06:29:58;21.30;99.90
5059;DHT22;2548;52.050;11.036;2023-07-24T06:32:26;21.30;99.90
5059;DHT22;2548;52.050;11.036;2023-07-24T06:34:53;21.30;99.90
5059;DHT22;2548;52.050;11.036;2023-07-24T06:37:22;21.30;99.90
5059;DHT22;2548;52.050;11.036;2023-07-24T06:39:49;21.30;99.90
5059;DHT22;2548;52.050;11.036;2023-07-24T06:42:17;21.30;99.90
5059;DHT22;2548;52.050;11.036;2023-07-24T06:44:44;21.40;99.90
5059;DHT22;2548;52.050;11.036;2023-07-24T06:47:12;21.50;99.90
5059;DHT22;2548;52.050;11.036;2023-07-24T06:49:39;21.50;99.90
5059;DHT22;2548;52.050;11.036;2023-07-24T06:52:07;21.60;99.90
5059;DHT22;2548;52.050;11.036;2023-07-24T06:54:35;21.80;99.90
5059;DHT22;2548;52.050;11.036;2023-07-24T06:57:03;21.90;99.90
5059;DHT22;2548;52.050;11.036;2023-07-24T06:59:31;22.00;99.90
5059;DHT22;2548;52.050;11.036;2023-07-24T07:01:58;22.20;99.90
5059;DHT22;2548;52.050;11.036;2023-07-24T07:04:26;22.20;99.90
5059;DHT22;2548;52.050;11.036;2023-07-24T07:06:53;22.20;99.90
5059;DHT22;2548;52.050;11.036;2023-07-24T07:09:20;22.20;99.90
5059;DHT22;2548;52.050;11.036;2023-07-24T07:11:49;22.20;99.90
5059;DHT22;2548;52.050;11.036;2023-07-24T07:14:17;22.10;99.90
5059;DHT22;2548;52.050;11.036;2023-07-24T07:16:44;22.10;99.90
5059;DHT22;2548;52.050;11.036;2023-07-24T07:19:13;22.10;99.90
5059;DHT22;2548;52.050;11.036;2023-07-24T07:21:41;22.10;99.90
5059;DHT22;2548;52.050;11.036;2023-07-24T07:24:08;22.20;99.90
5059;DHT22;2548;52.050;11.036;2023-07-24T07:26:36;22.20;99.90
5059;DHT22;2548;52.050;11.036;2023-07-24T07:29:04;22.20;99.90
5059;DHT22;2548;52.050;11.036;2023-07-24T07:31:32;22.20;99.90
5059;DHT22;2548;52.050;11.036;2023-07-24T07:33:59;22.20;99.90
5059;DHT22;2548;52.050;11.036;2023-07-24T07:36:27;22.20;99.90
5059;DHT22;2548;52.050;11.036;2023-07-24T07:38:54;22.40;99.90
5059;DHT22;2548;52.050;11.036;2023-07-24T07:41:22;22.60;99.90
5059;DHT22;2548;52.050;11.036;2023-07-24T07:43:49;22.70;99.90
5059;DHT22;2548;52.050;11.036;2023-07-24T07:46:18;22.80;99.90
5059;DHT22;2548;52.050;11.036;2023-07-24T07:48:45;22.80;99.90
5059;DHT22;2548;52.050;11.036;2023-07-24T07:51:15;22.80;99.90
5059;DHT22;2548;52.050;11.036;2023-07-24T07:53:42;22.90;99.90
5059;DHT22;2548;52.050;11.036;2023-07-24T07:56:10;23.10;99.90
5059;DHT22;2548;52.050;11.036;2023-07-24T07:58:37;23.20;99.90
5059;DHT22;2548;52.050;11.036;2023-07-24T08:01:05;23.20;99.90
5059;DHT22;2548;52.050;11.036;2023-07-24T08:03:34;23.30;99.90
5059;DHT22;2548;52.050;11.036;2023-07-24T08:06:01;23.50;99.90
5059;DHT22;2548;52.050;11.036;2023-07-24T08:08:29;23.70;99.90
5059;DHT22;2548;52.050;11.036;2023-07-24T08:10:56;23.90;99.90
5059;DHT22;2548;52.050;11.036;2023-07-24T08:13:24;24.10;99.90
5059;DHT22;2548;52.050;11.036;2023-07-24T08:15:51;24.40;99.90
5059;DHT22;2548;52.050;11.036;2023-07-24T08:18:18;24.50;99.90
5059;DHT22;2548;52.050;11.036;2023-07-24T08:20:47;24.60;99.90
5059;DHT22;2548;52.050;11.036;2023-07-24T08:23:15;24.80;99.90
5059;DHT22;2548;52.050;11.036;2023-07-24T08:25:51;24.90;99.90
5059;DHT22;2548;52.050;11.036;2023-07-24T08:28:18;25.10;99.90
5059;DHT22;2548;52.050;11.036;2023-07-24T08:30:46;25.20;99.90
5059;DHT22;2548;52.050;11.036;2023-07-24T08:33:13;25.40;99.90
5059;DHT22;2548;52.050;11.036;2023-07-24T08:35:41;25.60;99.90
5059;DHT22;2548;52.050;11.036;2023-07-24T08:38:10;25.70;99.90
5059;DHT22;2548;52.050;11.036;2023-07-24T08:40:37;25.80;99.90
5059;DHT22;2548;52.050;11.036;2023-07-24T08:43:05;25.90;99.90
5059;DHT22;2548;52.050;11.036;2023-07-24T08:45:33;25.80;99.90
5059;DHT22;2548;52.050;11.036;2023-07-24T08:48:00;25.70;99.90
5059;DHT22;2548;52.050;11.036;2023-07-24T08:50:29;25.60;99.90
5059;DHT22;2548;52.050;11.036;2023-07-24T08:52:57;25.50;99.90
5059;DHT22;2548;52.050;11.036;2023-07-24T08:55:26;25.40;99.90
5059;DHT22;2548;52.050;11.036;2023-07-24T08:57:54;25.20;99.90
5059;DHT22;2548;52.050;11.036;2023-07-24T09:00:21;25.20;99.90
5059;DHT22;2548;52.050;11.036;2023-07-24T09:02:49;25.10;99.90
5059;DHT22;2548;52.050;11.036;2023-07-24T09:05:16;25.00;99.90
5059;DHT22;2548;52.050;11.036;2023-07-24T09:07:44;25.00;99.90
5059;DHT22;2548;52.050;11.036;2023-07-24T09:10:13;24.90;99.90
5059;DHT22;2548;52.050;11.036;2023-07-24T09:12:43;24.80;99.90
5059;DHT22;2548;52.050;11.036;2023-07-24T09:15:11;24.90;99.90
5059;DHT22;2548;52.050;11.036;2023-07-24T09:17:47;25.10;99.90
5059;DHT22;2548;52.050;11.036;2023-07-24T09:20:15;25.20;99.90
5059;DHT22;2548;52.050;11.036;2023-07-24T09:22:48;25.50;99.90
5059;DHT22;2548;52.050;11.036;2023-07-24T09:25:16;25.60;99.90
5059;DHT22;2548;52.050;11.036;2023-07-24T09:27:45;26.00;99.90
5059;DHT22;2548;52.050;11.036;2023-07-24T09:30:12;26.30;99.90
5059;DHT22;2548;52.050;11.036;2023-07-24T09:32:40;26.50;99.90
5059;DHT22;2548;52.050;11.036;2023-07-24T09:35:16;26.60;99.90
5059;DHT22;2548;52.050;11.036;2023-07-24T09:37:44;26.80;99.90
5059;DHT22;2548;52.050;11.036;2023-07-24T09:40:14;26.90;99.90
5059;DHT22;2548;52.050;11.036;2023-07-24T09:42:42;26.50;99.90
5059;DHT22;2548;52.050;11.036;2023-07-24T09:45:11;26.10;99.90
5059;DHT22;2548;52.050;11.036;2023-07-24T09:47:39;25.70;99.90
5059;DHT22;2548;52.050;11.036;2023-07-24T09:50:08;24.80;99.90
5059;DHT22;2548;52.050;11.036;2023-07-24T09:52:37;23.80;99.90
5059;DHT22;2548;52.050;11.036;2023-07-24T09:55:13;23.10;99.90
5059;DHT22;2548;52.050;11.036;2023-07-24T09:57:44;22.80;99.90
5059;DHT22;2548;52.050;11.036;2023-07-24T10:00:14;22.80;99.90
5059;DHT22;2548;52.050;11.036;2023-07-24T10:02:42;22.80;99.90
5059;DHT22;2548;52.050;11.036;2023-07-24T10:05:09;23.00;99.90
5059;DHT22;2548;52.050;11.036;2023-07-24T10:07:37;23.20;99.90
5059;DHT22;2548;52.050;11.036;2023-07-24T10:10:06;23.50;99.90
5059;DHT22;2548;52.050;11.036;2023-07-24T10:12:34;23.70;99.90
5059;DHT22;2548;52.050;11.036;2023-07-24T10:15:03;23.90;99.90
5059;DHT22;2548;52.050;11.036;2023-07-24T10:17:39;24.10;99.90
5059;DHT22;2548;52.050;11.036;2023-07-24T10:20:09;24.20;99.90
5059;DHT22;2548;52.050;11.036;2023-07-24T10:22:40;24.20;99.90
5059;DHT22;2548;52.050;11.036;2023-07-24T10:25:08;24.30;99.90
5059;DHT22;2548;52.050;11.036;2023-07-24T10:27:39;24.20;99.90
5059;DHT22;2548;52.050;11.036;2023-07-24T10:30:07;24.40;99.90
5059;DHT22;2548;52.050;11.036;2023-07-24T10:32:46;24.50;99.90
5059;DHT22;2548;52.050;11.036;2023-07-24T10:35:16;24.90;99.90
5059;DHT22;2548;52.050;11.036;2023-07-24T10:37:44;25.00;99.90
5059;DHT22;2548;52.050;11.036;2023-07-24T10:40:19;25.10;99.90
5059;DHT22;2548;52.050;11.036;2023-07-24T10:42:47;25.20;99.90
5059;DHT22;2548;52.050;11.036;2023-07-24T10:45:14;25.30;99.90
5059;DHT22;2548;52.050;11.036;2023-07-24T10:47:41;25.30;99.90
5059;DHT22;2548;52.050;11.036;2023-07-24T10:50:10;25.40;99.90
5059;DHT22;2548;52.050;11.036;2023-07-24T10:52:38;25.30;99.90
5059;DHT22;2548;52.050;11.036;2023-07-24T10:55:06;25.20;99.90
5059;DHT22;2548;52.050;11.036;2023-07-24T10:57:34;25.10;99.90
5059;DHT22;2548;52.050;11.036;2023-07-24T11:00:01;25.20;99.90
5059;DHT22;2548;52.050;11.036;2023-07-24T11:02:28;25.50;99.90
5059;DHT22;2548;52.050;11.036;2023-07-24T11:04:58;25.60;99.90
5059;DHT22;2548;52.050;11.036;2023-07-24T11:07:32;25.60;99.90
5059;DHT22;2548;52.050;11.036;2023-07-24T11:09:59;25.70;99.90
5059;DHT22;2548;52.050;11.036;2023-07-24T11:12:27;25.80;99.90
5059;DHT22;2548;52.050;11.036;2023-07-24T11:14:56;25.90;99.90
5059;DHT22;2548;52.050;11.036;2023-07-24T11:17:33;26.20;99.90
5059;DHT22;2548;52.050;11.036;2023-07-24T11:20:09;26.50;99.90
5059;DHT22;2548;52.050;11.036;2023-07-24T11:22:40;26.70;99.90
5059;DHT22;2548;52.050;11.036;2023-07-24T11:25:08;26.90;99.90
5059;DHT22;2548;52.050;11.036;2023-07-24T11:27:40;27.20;99.90
5059;DHT22;2548;52.050;11.036;2023-07-24T11:30:10;27.00;99.90
5059;DHT22;2548;52.050;11.036;2023-07-24T11:32:39;26.90;99.90
5059;DHT22;2548;52.050;11.036;2023-07-24T11:35:08;26.40;99.90
5059;DHT22;2548;52.050;11.036;2023-07-24T11:37:36;26.20;99.90
5059;DHT22;2548;52.050;11.036;2023-07-24T11:40:06;26.10;99.90
5059;DHT22;2548;52.050;11.036;2023-07-24T11:42:39;26.00;99.90
5059;DHT22;2548;52.050;11.036;2023-07-24T11:45:08;26.00;99.90
5059;DHT22;2548;52.050;11.036;2023-07-24T11:47:44;26.00;99.90
5059;DHT22;2548;52.050;11.036;2023-07-24T11:50:12;26.10;99.90
5059;DHT22;2548;52.050;11.036;2023-07-24T11:52:40;26.00;99.90
5059;DHT22;2548;52.050;11.036;2023-07-24T11:55:11;26.00;99.90
5059;DHT22;2548;52.050;11.036;2023-07-24T11:57:39;26.20;99.90
5059;DHT22;2548;52.050;11.036;2023-07-24T12:00:18;26.20;99.90
5059;DHT22;2548;52.050;11.036;2023-07-24T12:02:45;26.20;99.90
5059;DHT22;2548;52.050;11.036;2023-07-24T12:05:13;26.10;99.90
5059;DHT22;2548;52.050;11.036;2023-07-24T12:07:43;26.00;99.90
5059;DHT22;2548;52.050;11.036;2023-07-24T12:10:13;25.80;99.90
5059;DHT22;2548;52.050;11.036;2023-07-24T12:12:43;25.60;99.90
5059;DHT22;2548;52.050;11.036;2023-07-24T12:15:11;25.50;99.90
5059;DHT22;2548;52.050;11.036;2023-07-24T12:17:39;25.40;99.90
5059;DHT22;2548;52.050;11.036;2023-07-24T12:20:08;25.30;99.90
5059;DHT22;2548;52.050;11.036;2023-07-24T12:22:36;25.40;99.90
5059;DHT22;2548;52.050;11.036;2023-07-24T12:25:05;25.40;99.90
5059;DHT22;2548;52.050;11.036;2023-07-24T12:27:34;25.50;99.90
5059;DHT22;2548;52.050;11.036;2023-07-24T12:30:04;25.60;99.90
5059;DHT22;2548;52.050;11.036;2023-07-24T12:32:32;25.70;99.90
5059;DHT22;2548;52.050;11.036;2023-07-24T12:34:59;25.90;99.90
5059;DHT22;2548;52.050;11.036;2023-07-24T12:37:27;26.00;99.90
5059;DHT22;2548;52.050;11.036;2023-07-24T12:39:54;26.10;99.90
5059;DHT22;2548;52.050;11.036;2023-07-24T12:42:22;26.10;99.90
5059;DHT22;2548;52.050;11.036;2023-07-24T12:44:50;26.10;99.90
5059;DHT22;2548;52.050;11.036;2023-07-24T12:47:18;26.20;99.90
5059;DHT22;2548;52.050;11.036;2023-07-24T12:49:45;26.20;99.90
5059;DHT22;2548;52.050;11.036;2023-07-24T12:52:13;26.30;99.90
5059;DHT22;2548;52.050;11.036;2023-07-24T12:54:40;26.40;99.90
5059;DHT22;2548;52.050;11.036;2023-07-24T12:57:08;26.50;99.90
5059;DHT22;2548;52.050;11.036;2023-07-24T12:59:36;26.50;99.90
5059;DHT22;2548;52.050;11.036;2023-07-24T13:02:05;26.60;99.90
5059;DHT22;2548;52.050;11.036;2023-07-24T13:04:32;26.70;99.90
5059;DHT22;2548;52.050;11.036;2023-07-24T13:07:00;26.70;99.90
5059;DHT22;2548;52.050;11.036;2023-07-24T13:09:27;26.80;99.90
5059;DHT22;2548;52.050;11.036;2023-07-24T13:11:55;26.90;99.90
5059;DHT22;2548;52.050;11.036;2023-07-24T13:14:22;27.00;99.90
5059;DHT22;2548;52.050;11.036;2023-07-24T13:16:50;26.90;99.90
5059;DHT22;2548;52.050;11.036;2023-07-24T13:19:19;26.80;99.90
5059;DHT22;2548;52.050;11.036;2023-07-24T13:21:46;26.80;99.90
5059;DHT22;2548;52.050;11.036;2023-07-24T13:24:14;26.80;99.90
5059;DHT22;2548;52.050;11.036;2023-07-24T13:26:41;26.70;99.90
5059;DHT22;2548;52.050;11.036;2023-07-24T13:29:08;26.90;99.90
5059;DHT22;2548;52.050;11.036;2023-07-24T13:31:36;27.10;99.90
5059;DHT22;2548;52.050;11.036;2023-07-24T13:34:03;27.10;99.90
5059;DHT22;2548;52.050;11.036;2023-07-24T13:36:32;27.10;99.90
5059;DHT22;2548;52.050;11.036;2023-07-24T13:38:59;27.10;99.90
5059;DHT22;2548;52.050;11.036;2023-07-24T13:41:28;27.00;99.90
5059;DHT22;2548;52.050;11.036;2023-07-24T13:43:55;26.90;99.90
5059;DHT22;2548;52.050;11.036;2023-07-24T13:46:23;26.80;99.90
5059;DHT22;2548;52.050;11.036;2023-07-24T13:48:50;26.60;99.90
5059;DHT22;2548;52.050;11.036;2023-07-24T13:51:18;26.50;99.90
5059;DHT22;2548;52.050;11.036;2023-07-24T13:53:47;26.40;99.90
5059;DHT22;2548;52.050;11.036;2023-07-24T13:56:15;26.40;99.90
5059;DHT22;2548;52.050;11.036;2023-07-24T13:58:44;26.30;99.90
5059;DHT22;2548;52.050;11.036;2023-07-24T14:01:11;26.30;99.90
5059;DHT22;2548;52.050;11.036;2023-07-24T14:03:39;26.40;99.90
5059;DHT22;2548;52.050;11.036;2023-07-24T14:06:06;26.50;99.90
5059;DHT22;2548;52.050;11.036;2023-07-24T14:08:34;27.00;99.90
5059;DHT22;2548;52.050;11.036;2023-07-24T14:11:03;27.60;99.90
5059;DHT22;2548;52.050;11.036;2023-07-24T14:13:30;27.90;99.90
5059;DHT22;2548;52.050;11.036;2023-07-24T14:15:58;28.20;99.90
5059;DHT22;2548;52.050;11.036;2023-07-24T14:18:26;28.10;99.90
5059;DHT22;2548;52.050;11.036;2023-07-24T14:20:53;28.00;99.90
5059;DHT22;2548;52.050;11.036;2023-07-24T14:23:22;27.70;99.90
5059;DHT22;2548;52.050;11.036;2023-07-24T14:25:50;27.60;99.90
5059;DHT22;2548;52.050;11.036;2023-07-24T14:28:19;27.50;99.90
5059;DHT22;2548;52.050;11.036;2023-07-24T14:30:47;27.30;99.90
5059;DHT22;2548;52.050;11.036;2023-07-24T14:33:15;27.10;99.90
5059;DHT22;2548;52.050;11.036;2023-07-24T14:35:42;26.90;99.90
5059;DHT22;2548;52.050;11.036;2023-07-24T14:38:14;26.70;99.90
5059;DHT22;2548;52.050;11.036;2023-07-24T14:40:42;26.40;99.90
5059;DHT22;2548;52.050;11.036;2023-07-24T14:43:09;26.20;99.90
5059;DHT22;2548;52.050;11.036;2023-07-24T14:45:38;25.90;99.90
5059;DHT22;2548;52.050;11.036;2023-07-24T14:48:06;25.50;99.90
5059;DHT22;2548;52.050;11.036;2023-07-24T14:50:36;24.80;99.90
5059;DHT22;2548;52.050;11.036;2023-07-24T14:53:03;24.10;99.90
5059;DHT22;2548;52.050;11.036;2023-07-24T14:55:31;23.40;99.90
5059;DHT22;2548;52.050;11.036;2023-07-24T14:57:58;23.00;99.90
5059;DHT22;2548;52.050;11.036;2023-07-24T15:00:26;22.70;99.90
5059;DHT22;2548;52.050;11.036;2023-07-24T15:02:57;22.80;99.90
5059;DHT22;2548;52.050;11.036;2023-07-24T15:05:24;23.00;99.90
5059;DHT22;2548;52.050;11.036;2023-07-24T15:07:52;23.10;99.90
5059;DHT22;2548;52.050;11.036;2023-07-24T15:10:20;23.10;99.90
5059;DHT22;2548;52.050;11.036;2023-07-24T15:12:48;23.20;99.90
5059;DHT22;2548;52.050;11.036;2023-07-24T15:15:16;23.20;99.90
5059;DHT22;2548;52.050;11.036;2023-07-24T15:17:49;23.50;99.90
5059;DHT22;2548;52.050;11.036;2023-07-24T15:20:18;23.50;99.90
5059;DHT22;2548;52.050;11.036;2023-07-24T15:22:48;23.40;99.90
5059;DHT22;2548;52.050;11.036;2023-07-24T15:25:16;23.20;99.90
5059;DHT22;2548;52.050;11.036;2023-07-24T15:27:43;23.10;99.90
5059;DHT22;2548;52.050;11.036;2023-07-24T15:30:11;23.00;99.90
5059;DHT22;2548;52.050;11.036;2023-07-24T15:32:46;22.90;99.90
5059;DHT22;2548;52.050;11.036;2023-07-24T15:35:18;22.80;99.90
5059;DHT22;2548;52.050;11.036;2023-07-24T15:37:46;22.60;99.90
5059;DHT22;2548;52.050;11.036;2023-07-24T15:40:15;22.50;99.90
5059;DHT22;2548;52.050;11.036;2023-07-24T15:42:42;22.30;99.90
5059;DHT22;2548;52.050;11.036;2023-07-24T15:45:10;22.20;99.90
5059;DHT22;2548;52.050;11.036;2023-07-24T15:47:38;22.10;99.90
5059;DHT22;2548;52.050;11.036;2023-07-24T15:50:08;21.50;99.90
5059;DHT22;2548;52.050;11.036;2023-07-24T15:52:40;19.70;99.90